Time;durP1;ratioP1;P1;durP2;ratioP2;P2;SDS_P1;SDS_P2;PMS_P1;PMS_P2;Temp;Humidity;BMP_temperature;BMP_pressure;BME280_temperature;BME280_humidity;BME280_pressure;Samples;Min_cycle;Max_cycle;Signal;HPM_P1;HPM_P2
2021/07/16 00:00:29;;;;;;;;;;;;;;;13.57;nan;100108.47;4995441;28;19975;-78
2021/07/16 00:02:56;;;;;;;;;;;;;;;13.20;nan;100114.06;4995241;28;19971;-77
2021/07/16 00:05:24;;;;;;;;;;;;;;;13.36;nan;100114.31;5012777;28;19926;-78
2021/07/16 00:07:51;;;;;;;;;;;;;;;13.56;nan;100115.28;5012488;28;19933;-78
2021/07/16 00:10:19;;;;;;;;;;;;;;;13.66;nan;100108.78;5012831;28;19930;-78
2021/07/16 00:12:47;;;;;;;;;;;;;;;13.68;nan;100109.94;5012433;28;19926;-77
2021/07/16 00:15:16;;;;;;;;;;;;;;;13.64;nan;100112.00;5012457;28;20377;-77
2021/07/16 00:17:43;;;;;;;;;;;;;;;13.61;nan;100100.78;4994724;28;19929;-77
2021/07/16 00:20:13;;;;;;;;;;;;;;;13.56;nan;100095.63;5011857;28;21317;-77
2021/07/16 00:22:40;;;;;;;;;;;;;;;13.46;nan;100099.38;5012533;28;19932;-77
2021/07/16 00:25:09;;;;;;;;;;;;;;;13.44;nan;100096.16;4994967;28;19940;-77
2021/07/16 00:27:36;;;;;;;;;;;;;;;13.29;nan;100095.53;5012558;28;19925;-77
2021/07/16 00:30:04;;;;;;;;;;;;;;;13.41;nan;100095.00;4994872;28;19948;-78
2021/07/16 00:32:33;;;;;;;;;;;;;;;13.43;nan;100092.59;5012319;28;19925;-77
2021/07/16 00:35:00;;;;;;;;;;;;;;;13.46;nan;100094.56;4994792;28;20423;-77
2021/07/16 00:37:27;;;;;;;;;;;;;;;13.20;nan;100097.22;4995177;28;19926;-77
2021/07/16 00:39:57;;;;;;;;;;;;;;;13.39;nan;100099.47;5016252;28;20278;-77
2021/07/16 00:42:26;;;;;;;;;;;;;;;13.49;nan;100092.91;5016808;28;19929;-78
2021/07/16 00:45:11;;;;;;;;;;;;;;;13.50;nan;100089.69;5016179;28;19931;-77
2021/07/16 00:47:38;;;;;;;;;;;;;;;13.36;nan;100091.88;5015993;28;20328;-77
2021/07/16 00:50:07;;;;;;;;;;;;;;;12.93;nan;100087.84;5016089;28;19929;-77
2021/07/16 00:52:34;;;;;;;;;;;;;;;12.69;nan;100095.28;4998738;28;19931;-77
2021/07/16 00:55:02;;;;;;;;;;;;;;;12.55;nan;100096.19;5015910;28;20058;-77
2021/07/16 00:57:30;;;;;;;;;;;;;;;12.40;nan;100093.91;5015780;28;19926;-77
2021/07/16 00:59:57;;;;;;;;;;;;;;;12.62;nan;100101.75;5015890;28;19952;-78
2021/07/16 01:02:25;;;;;;;;;;;;;;;12.91;nan;100107.91;4998284;28;19947;-77
2021/07/16 01:04:53;;;;;;;;;;;;;;;13.02;nan;100096.63;5015699;28;19926;-77
2021/07/16 01:07:20;;;;;;;;;;;;;;;13.10;nan;100098.16;4998179;28;19936;-77
2021/07/16 01:09:50;;;;;;;;;;;;;;;13.03;nan;100089.78;5015713;28;19975;-77
2021/07/16 01:12:19;;;;;;;;;;;;;;;13.16;nan;100093.69;4998370;28;19925;-77
2021/07/16 01:14:46;;;;;;;;;;;;;;;13.17;nan;100092.47;5015468;28;19992;-77
2021/07/16 01:17:14;;;;;;;;;;;;;;;13.24;nan;100086.78;5015547;28;19958;-77
2021/07/16 01:19:55;;;;;;;;;;;;;;;13.24;nan;100086.78;5015435;28;19930;-77
2021/07/16 01:22:24;;;;;;;;;;;;;;;12.93;nan;100093.47;5015541;28;20401;-78
2021/07/16 01:24:52;;;;;;;;;;;;;;;12.84;nan;100095.94;5015308;28;19972;-77
2021/07/16 01:27:20;;;;;;;;;;;;;;;12.92;nan;100095.47;5015463;28;19929;-77
2021/07/16 01:29:48;;;;;;;;;;;;;;;12.96;nan;100098.25;5015148;28;19929;-78
2021/07/16 01:32:16;;;;;;;;;;;;;;;13.01;nan;100089.41;4998007;28;19932;-77
2021/07/16 01:34:45;;;;;;;;;;;;;;;13.08;nan;100094.94;4998131;28;19931;-77
2021/07/16 01:37:12;;;;;;;;;;;;;;;13.14;nan;100087.69;5015275;28;19926;-77
2021/07/16 01:39:39;;;;;;;;;;;;;;;13.00;nan;100096.22;5015356;28;20397;-77
2021/07/16 01:42:07;;;;;;;;;;;;;;;12.87;nan;100089.50;5015002;28;19932;-77
2021/07/16 01:44:36;;;;;;;;;;;;;;;12.67;nan;100095.69;5014994;28;20296;-77
2021/07/16 01:47:03;;;;;;;;;;;;;;;12.33;nan;100089.13;5014973;28;20297;-77
2021/07/16 01:49:30;;;;;;;;;;;;;;;12.65;nan;100089.69;5013992;28;19929;-77
2021/07/16 01:51:58;;;;;;;;;;;;;;;12.77;nan;100103.22;5014605;28;19979;-77
2021/07/16 01:54:25;;;;;;;;;;;;;;;12.77;nan;100096.81;4979398;28;19971;-77
2021/07/16 01:56:53;;;;;;;;;;;;;;;12.78;nan;100092.81;5014584;28;19990;-77
2021/07/16 01:59:20;;;;;;;;;;;;;;;12.71;nan;100090.84;4997503;28;19933;-77
2021/07/16 02:01:47;;;;;;;;;;;;;;;12.81;nan;100091.16;5014499;28;20036;-78
2021/07/16 02:04:14;;;;;;;;;;;;;;;12.85;nan;100103.94;5014870;28;19936;-77
2021/07/16 02:06:41;;;;;;;;;;;;;;;12.89;nan;100092.72;4997335;28;19933;-77
2021/07/16 02:09:09;;;;;;;;;;;;;;;12.88;nan;100099.50;5014601;28;19926;-77
2021/07/16 02:11:37;;;;;;;;;;;;;;;12.85;nan;100091.94;5014724;28;19979;-77
2021/07/16 02:14:04;;;;;;;;;;;;;;;12.87;nan;100092.31;4997028;28;19925;-77
2021/07/16 02:16:31;;;;;;;;;;;;;;;12.47;nan;100091.03;5014243;28;19929;-77
2021/07/16 02:18:58;;;;;;;;;;;;;;;12.37;nan;100089.91;4997141;28;19925;-77
2021/07/16 02:21:26;;;;;;;;;;;;;;;12.36;nan;100087.50;5014290;28;19979;-77
2021/07/16 02:23:53;;;;;;;;;;;;;;;12.33;nan;100082.72;5014507;28;19926;-77
2021/07/16 02:26:20;;;;;;;;;;;;;;;12.47;nan;100089.03;5014201;28;19931;-77
2021/07/16 02:28:47;;;;;;;;;;;;;;;12.56;nan;100089.38;4996933;28;19926;-77
2021/07/16 02:31:15;;;;;;;;;;;;;;;12.49;nan;100092.25;5014192;28;19925;-77
2021/07/16 02:33:42;;;;;;;;;;;;;;;12.53;nan;100087.41;5014140;28;19925;-78
2021/07/16 02:36:10;;;;;;;;;;;;;;;12.52;nan;100085.81;5014283;28;19932;-78
2021/07/16 02:38:37;;;;;;;;;;;;;;;12.50;nan;100091.03;5014023;28;19932;-77
2021/07/16 02:41:04;;;;;;;;;;;;;;;12.58;nan;100088.97;5014277;28;19925;-78
2021/07/16 02:43:34;;;;;;;;;;;;;;;12.58;nan;100086.16;4996330;28;19926;-77
2021/07/16 02:46:02;;;;;;;;;;;;;;;12.51;nan;100084.19;5013671;28;19929;-77
2021/07/16 02:48:29;;;;;;;;;;;;;;;12.45;nan;100074.63;5013842;28;19929;-78
2021/07/16 02:50:56;;;;;;;;;;;;;;;12.29;nan;100077.16;5014013;28;19931;-78
2021/07/16 02:53:23;;;;;;;;;;;;;;;12.36;nan;100081.91;5013851;28;19939;-77
2021/07/16 02:55:52;;;;;;;;;;;;;;;12.40;nan;100083.47;5000061;28;19932;-77
2021/07/16 02:58:19;;;;;;;;;;;;;;;12.37;nan;100078.69;4996405;28;19929;-77
2021/07/16 03:00:46;;;;;;;;;;;;;;;12.31;nan;100085.94;5013326;28;19926;-77
2021/07/16 03:03:13;;;;;;;;;;;;;;;12.18;nan;100081.22;5013803;28;19956;-77
2021/07/16 03:05:40;;;;;;;;;;;;;;;12.26;nan;100083.59;4996095;28;19925;-77
2021/07/16 03:08:09;;;;;;;;;;;;;;;12.27;nan;100082.38;5013605;28;20381;-77
2021/07/16 03:10:40;;;;;;;;;;;;;;;12.05;nan;100080.94;4995732;28;20004;-77
2021/07/16 03:13:11;;;;;;;;;;;;;;;12.19;nan;100083.63;5013668;28;19925;-77
2021/07/16 03:15:39;;;;;;;;;;;;;;;12.19;nan;100078.00;5013052;28;19926;-77
2021/07/16 03:18:07;;;;;;;;;;;;;;;12.06;nan;100082.50;5013527;28;19973;-77
2021/07/16 03:20:38;;;;;;;;;;;;;;;11.85;nan;100091.03;5013507;28;19933;-77
2021/07/16 03:23:06;;;;;;;;;;;;;;;11.87;nan;100082.22;5013124;28;19955;-78
2021/07/16 03:25:35;;;;;;;;;;;;;;;12.05;nan;100077.31;5013151;28;19926;-77
2021/07/16 03:28:03;;;;;;;;;;;;;;;11.94;nan;100082.97;4994047;28;19925;-77
2021/07/16 03:30:31;;;;;;;;;;;;;;;12.12;nan;100077.25;5013236;28;20288;-78
2021/07/16 03:32:59;;;;;;;;;;;;;;;12.07;nan;100070.09;5013273;28;19940;-77
2021/07/16 03:35:26;;;;;;;;;;;;;;;11.82;nan;100079.84;4995876;28;19971;-77
2021/07/16 03:37:54;;;;;;;;;;;;;;;11.96;nan;100080.56;4995672;28;19929;-78
2021/07/16 03:40:23;;;;;;;;;;;;;;;11.76;nan;100075.88;5013165;28;19929;-77
2021/07/16 03:42:50;;;;;;;;;;;;;;;11.73;nan;100082.28;5012992;28;19926;-77
2021/07/16 03:45:18;;;;;;;;;;;;;;;11.92;nan;100074.19;4995589;28;19932;-78
2021/07/16 03:47:47;;;;;;;;;;;;;;;11.74;nan;100079.06;5013122;28;19980;-77
2021/07/16 03:50:18;;;;;;;;;;;;;;;11.43;nan;100068.78;5012830;28;19933;-78
2021/07/16 03:52:46;;;;;;;;;;;;;;;11.75;nan;100075.09;5013210;28;19932;-77
2021/07/16 03:55:13;;;;;;;;;;;;;;;11.63;nan;100078.31;4995305;28;19926;-77
2021/07/16 03:57:42;;;;;;;;;;;;;;;11.48;nan;100076.75;5012711;28;19929;-77
2021/07/16 04:00:11;;;;;;;;;;;;;;;11.42;nan;100075.56;5012830;28;19967;-77
2021/07/16 04:02:38;;;;;;;;;;;;;;;11.45;nan;100088.75;5012739;28;20401;-77
2021/07/16 04:05:06;;;;;;;;;;;;;;;11.43;nan;100071.59;5012780;28;19926;-77
2021/07/16 04:07:35;;;;;;;;;;;;;;;11.56;nan;100083.91;4995175;28;20147;-77
2021/07/16 04:10:02;;;;;;;;;;;;;;;11.54;nan;100086.31;4995146;28;20463;-77
2021/07/16 04:12:30;;;;;;;;;;;;;;;11.52;nan;100088.75;5012240;28;19925;-77
2021/07/16 04:14:57;;;;;;;;;;;;;;;11.31;nan;100083.22;5012308;28;19929;-78
2021/07/16 04:17:26;;;;;;;;;;;;;;;11.52;nan;100088.75;5012525;28;19925;-77
2021/07/16 04:19:53;;;;;;;;;;;;;;;11.79;nan;100083.44;5012718;28;19930;-77
2021/07/16 04:22:24;;;;;;;;;;;;;;;11.99;nan;100087.34;5012667;28;19929;-77
2021/07/16 04:24:52;;;;;;;;;;;;;;;12.07;nan;100081.28;4995021;28;19925;-78
2021/07/16 04:27:19;;;;;;;;;;;;;;;11.89;nan;100097.41;4995062;28;19929;-77
2021/07/16 04:29:46;;;;;;;;;;;;;;;12.10;nan;100080.47;5012440;28;19929;-77
2021/07/16 04:32:14;;;;;;;;;;;;;;;12.20;nan;100090.03;5012581;28;19933;-77
2021/07/16 04:34:42;;;;;;;;;;;;;;;12.26;nan;100094.00;5012111;28;19956;-78
2021/07/16 04:37:09;;;;;;;;;;;;;;;12.21;nan;100098.03;5012649;28;19925;-78
2021/07/16 04:39:37;;;;;;;;;;;;;;;12.07;nan;100092.50;5012229;28;19932;-78
2021/07/16 04:42:05;;;;;;;;;;;;;;;11.88;nan;100090.22;4994900;28;19929;-77
2021/07/16 04:44:33;;;;;;;;;;;;;;;12.24;nan;100096.41;5012158;28;19929;-77
2021/07/16 04:47:00;;;;;;;;;;;;;;;12.29;nan;100099.59;5012377;28;19925;-78
2021/07/16 04:49:27;;;;;;;;;;;;;;;11.66;nan;100094.28;5012457;28;19992;-77
2021/07/16 04:51:55;;;;;;;;;;;;;;;11.96;nan;100097.38;4994666;28;19925;-77
2021/07/16 04:54:22;;;;;;;;;;;;;;;12.08;nan;100104.50;5012243;28;19987;-77
2021/07/16 04:56:49;;;;;;;;;;;;;;;12.36;nan;100112.72;5012068;28;19925;-77
2021/07/16 04:59:17;;;;;;;;;;;;;;;12.30;nan;100106.78;5012428;28;19955;-77
2021/07/16 05:01:44;;;;;;;;;;;;;;;12.50;nan;100113.44;5012095;28;20381;-77
2021/07/16 05:04:11;;;;;;;;;;;;;;;12.82;nan;100110.38;4994649;28;19925;-77
2021/07/16 05:06:39;;;;;;;;;;;;;;;12.83;nan;100122.41;5012091;28;20510;-78
2021/07/16 05:09:06;;;;;;;;;;;;;;;12.97;nan;100113.84;5012028;28;19925;-78
2021/07/16 05:11:33;;;;;;;;;;;;;;;13.04;nan;100122.25;5012088;28;20108;-78
2021/07/16 05:14:01;;;;;;;;;;;;;;;13.11;nan;100117.38;5011925;28;19926;-78
2021/07/16 05:16:28;;;;;;;;;;;;;;;12.72;nan;100120.47;4994627;28;20411;-77
2021/07/16 05:18:56;;;;;;;;;;;;;;;13.13;nan;100125.38;4994903;28;19930;-77
2021/07/16 05:21:24;;;;;;;;;;;;;;;12.84;nan;100124.00;5011690;28;20370;-78
2021/07/16 05:23:51;;;;;;;;;;;;;;;13.26;nan;100129.25;5012184;28;20434;-78
2021/07/16 05:26:19;;;;;;;;;;;;;;;13.52;nan;100128.59;5014469;28;19929;-78
2021/07/16 05:28:49;;;;;;;;;;;;;;;13.68;nan;100134.41;4998125;28;19929;-78
2021/07/16 05:31:17;;;;;;;;;;;;;;;13.75;nan;100125.91;5015599;28;20373;-78
2021/07/16 05:33:45;;;;;;;;;;;;;;;13.87;nan;100131.75;4998095;28;19925;-78
2021/07/16 05:36:12;;;;;;;;;;;;;;;14.08;nan;100133.50;5015122;28;19925;-78
2021/07/16 05:38:39;;;;;;;;;;;;;;;14.32;nan;100143.66;5015316;28;20331;-78
2021/07/16 05:41:07;;;;;;;;;;;;;;;14.20;nan;100136.56;5015227;28;19930;-78
2021/07/16 05:43:35;;;;;;;;;;;;;;;14.57;nan;100137.69;5001641;28;19932;-78
2021/07/16 05:46:03;;;;;;;;;;;;;;;14.65;nan;100131.50;4997955;28;19929;-78
2021/07/16 05:48:33;;;;;;;;;;;;;;;14.60;nan;100137.59;5014986;28;19926;-78
2021/07/16 05:51:01;;;;;;;;;;;;;;;15.07;nan;100147.69;5014998;28;20377;-78
2021/07/16 05:53:28;;;;;;;;;;;;;;;16.17;nan;100148.03;5014876;28;19926;-78
2021/07/16 05:55:56;;;;;;;;;;;;;;;16.35;nan;100135.53;4997609;28;20296;-78
2021/07/16 05:58:23;;;;;;;;;;;;;;;16.32;nan;100131.56;5014741;28;19941;-78
2021/07/16 06:00:51;;;;;;;;;;;;;;;15.86;nan;100138.19;4997354;28;19974;-78
2021/07/16 06:03:18;;;;;;;;;;;;;;;16.12;nan;100145.69;5014896;28;20304;-78
2021/07/16 06:05:45;;;;;;;;;;;;;;;16.43;nan;100134.97;5014482;28;20373;-78
2021/07/16 06:08:14;;;;;;;;;;;;;;;16.75;nan;100137.84;5014590;28;19925;-78
2021/07/16 06:10:41;;;;;;;;;;;;;;;17.02;nan;100135.56;4997095;28;19926;-78
2021/07/16 06:13:08;;;;;;;;;;;;;;;16.92;nan;100138.66;5014803;28;19925;-78
2021/07/16 06:15:35;;;;;;;;;;;;;;;16.90;nan;100133.47;5014410;28;19925;-78
2021/07/16 06:18:03;;;;;;;;;;;;;;;16.86;nan;100148.88;5014492;28;19934;-78
2021/07/16 06:20:30;;;;;;;;;;;;;;;17.05;nan;100150.84;5014361;28;19930;-78
2021/07/16 06:22:57;;;;;;;;;;;;;;;17.13;nan;100152.25;5014313;28;19933;-77
2021/07/16 06:25:25;;;;;;;;;;;;;;;17.54;nan;100150.34;5014507;28;20381;-78
2021/07/16 06:27:52;;;;;;;;;;;;;;;17.59;nan;100152.66;5014308;28;19937;-78
2021/07/16 06:30:19;;;;;;;;;;;;;;;17.72;nan;100155.53;4996862;28;20521;-78
2021/07/16 06:32:46;;;;;;;;;;;;;;;18.07;nan;100148.09;5014235;28;19931;-78
2021/07/16 06:35:14;;;;;;;;;;;;;;;18.26;nan;100145.06;5013850;28;20373;-78
2021/07/16 06:37:45;;;;;;;;;;;;;;;18.30;nan;100151.41;5014230;28;19932;-78
2021/07/16 06:40:12;;;;;;;;;;;;;;;18.49;nan;100141.97;4996806;28;20335;-78
2021/07/16 06:42:40;;;;;;;;;;;;;;;18.71;nan;100136.41;4996746;28;19926;-78
2021/07/16 06:45:07;;;;;;;;;;;;;;;18.80;nan;100140.16;5014253;28;20381;-78
2021/07/16 06:47:34;;;;;;;;;;;;;;;19.16;nan;100143.41;5014079;28;19975;-78
2021/07/16 06:50:02;;;;;;;;;;;;;;;19.15;nan;100135.34;5013902;28;19933;-78
2021/07/16 06:52:33;;;;;;;;;;;;;;;19.51;nan;100136.53;5013850;28;19929;-78
2021/07/16 06:55:01;;;;;;;;;;;;;;;20.09;nan;100138.88;4996197;28;19930;-78
2021/07/16 06:57:29;;;;;;;;;;;;;;;21.36;nan;100132.56;5013853;28;19929;-78
2021/07/16 06:59:56;;;;;;;;;;;;;;;23.23;nan;100105.44;4996348;28;19986;-78
2021/07/16 07:02:24;;;;;;;;;;;;;;;24.53;nan;100078.44;5013579;28;19925;-78
2021/07/16 07:04:51;;;;;;;;;;;;;;;25.44;nan;100070.22;5013652;28;19926;-78
2021/07/16 07:07:18;;;;;;;;;;;;;;;27.05;nan;100066.81;4996388;28;20342;-78
2021/07/16 07:09:46;;;;;;;;;;;;;;;28.08;nan;100059.16;5013834;28;19932;-78
2021/07/16 07:12:13;;;;;;;;;;;;;;;29.07;nan;100053.41;5013392;28;19929;-78
2021/07/16 07:14:40;;;;;;;;;;;;;;;29.43;nan;100055.09;4996190;28;19951;-78
2021/07/16 07:17:08;;;;;;;;;;;;;;;28.38;nan;100057.34;4992489;28;19926;-78
2021/07/16 07:19:35;;;;;;;;;;;;;;;29.12;nan;100057.56;4976428;28;20300;-77
2021/07/16 07:22:03;;;;;;;;;;;;;;;28.02;nan;100056.25;4993792;28;19930;-78
2021/07/16 07:24:31;;;;;;;;;;;;;;;27.21;nan;100057.47;4993659;28;19926;-78
2021/07/16 07:26:58;;;;;;;;;;;;;;;27.51;nan;100061.56;4993714;28;19925;-78
2021/07/16 07:29:26;;;;;;;;;;;;;;;28.03;nan;100060.72;4993530;28;19926;-78
2021/07/16 07:31:53;;;;;;;;;;;;;;;29.34;nan;100058.28;4993536;28;19956;-78
2021/07/16 07:34:20;;;;;;;;;;;;;;;31.09;nan;100045.28;4992207;28;19926;-78
2021/07/16 07:36:49;;;;;;;;;;;;;;;31.39;nan;100046.00;4992375;28;19930;-79
2021/07/16 07:39:16;;;;;;;;;;;;;;;32.42;nan;100059.53;4993512;28;19948;-79
2021/07/16 07:41:47;;;;;;;;;;;;;;;33.33;nan;100046.56;4993416;28;19926;-79
2021/07/16 07:44:16;;;;;;;;;;;;;;;33.10;nan;100052.03;4992251;28;20308;-79
2021/07/16 07:46:44;;;;;;;;;;;;;;;33.64;nan;100057.28;4991883;28;19960;-79
2021/07/16 07:49:13;;;;;;;;;;;;;;;32.34;nan;100055.69;4991707;28;19926;-79
2021/07/16 07:51:41;;;;;;;;;;;;;;;32.85;nan;100053.53;4993061;28;19938;-79
2021/07/16 07:54:08;;;;;;;;;;;;;;;33.13;nan;100061.72;4993153;28;20312;-79
2021/07/16 07:56:36;;;;;;;;;;;;;;;31.83;nan;100065.69;4993094;28;20097;-79
2021/07/16 07:59:04;;;;;;;;;;;;;;;32.45;nan;100070.00;4993306;28;19926;-79
2021/07/16 08:01:33;;;;;;;;;;;;;;;33.05;nan;100070.31;4993001;28;19925;-78
2021/07/16 08:04:00;;;;;;;;;;;;;;;34.03;nan;100063.81;4991828;28;19932;-79
2021/07/16 08:06:27;;;;;;;;;;;;;;;33.77;nan;100055.13;4992025;28;20297;-79
2021/07/16 08:08:55;;;;;;;;;;;;;;;34.21;nan;100056.25;4991721;28;19933;-79
2021/07/16 08:11:22;;;;;;;;;;;;;;;34.21;nan;100064.97;4993111;28;19925;-79
2021/07/16 08:13:49;;;;;;;;;;;;;;;34.12;nan;100065.44;4993066;28;19987;-78
2021/07/16 08:16:17;;;;;;;;;;;;;;;33.83;nan;100061.59;5004438;28;19932;-79
2021/07/16 08:18:44;;;;;;;;;;;;;;;32.82;nan;100055.41;5012577;28;19929;-79
2021/07/16 08:21:11;;;;;;;;;;;;;;;33.23;nan;100071.53;5012392;28;19926;-78
2021/07/16 08:23:38;;;;;;;;;;;;;;;31.82;nan;100069.06;4995256;28;19929;-78
2021/07/16 08:26:06;;;;;;;;;;;;;;;33.43;nan;100062.22;5012571;28;19925;-79
2021/07/16 08:28:33;;;;;;;;;;;;;;;32.62;nan;100075.50;5012639;28;19987;-79
2021/07/16 08:31:00;;;;;;;;;;;;;;;30.64;nan;100084.53;5012148;28;20388;-78
2021/07/16 08:33:27;;;;;;;;;;;;;;;30.48;nan;100088.31;4994943;28;19925;-78
2021/07/16 08:35:55;;;;;;;;;;;;;;;29.58;nan;100086.47;5012447;28;19925;-78
2021/07/16 08:38:22;;;;;;;;;;;;;;;29.67;nan;100089.84;4994819;28;19925;-78
2021/07/16 08:40:50;;;;;;;;;;;;;;;29.44;nan;100094.13;5012567;28;20365;-78
2021/07/16 08:43:20;;;;;;;;;;;;;;;30.11;nan;100088.03;5012222;28;19987;-78
2021/07/16 08:45:47;;;;;;;;;;;;;;;31.15;nan;100089.28;5012448;28;19926;-78
2021/07/16 08:48:15;;;;;;;;;;;;;;;32.14;nan;100082.28;4994563;28;19925;-78
2021/07/16 08:50:42;;;;;;;;;;;;;;;31.65;nan;100085.84;5012356;28;19930;-78
2021/07/16 08:53:12;;;;;;;;;;;;;;;32.24;nan;100083.47;4994674;28;19932;-78
2021/07/16 08:55:41;;;;;;;;;;;;;;;31.90;nan;100087.41;4994872;28;19926;-78
2021/07/16 08:58:10;;;;;;;;;;;;;;;31.50;nan;100080.53;5012230;28;19932;-78
2021/07/16 09:00:38;;;;;;;;;;;;;;;31.32;nan;100096.47;4998161;28;19963;-78
2021/07/16 09:03:09;;;;;;;;;;;;;;;31.63;nan;100095.06;4998797;28;19926;-78
2021/07/16 09:05:39;;;;;;;;;;;;;;;32.01;nan;100101.66;4998422;28;19925;-78
2021/07/16 09:08:17;;;;;;;;;;;;;;;32.30;nan;100092.03;5015984;28;20377;-78
2021/07/16 09:10:45;;;;;;;;;;;;;;;31.28;nan;100098.06;5015719;28;19952;-78
2021/07/16 09:13:13;;;;;;;;;;;;;;;30.79;nan;100096.50;5015555;28;19932;-78
2021/07/16 09:15:46;;;;;;;;;;;;;;;30.86;nan;100107.44;5015353;28;19932;-78
2021/07/16 09:18:18;;;;;;;;;;;;;;;30.94;nan;100096.88;5015736;28;19925;-78
2021/07/16 09:20:46;;;;;;;;;;;;;;;30.47;nan;100113.50;4998458;28;19926;-78
2021/07/16 09:23:16;;;;;;;;;;;;;;;30.87;nan;100106.88;5015712;28;19934;-78
2021/07/16 09:25:43;;;;;;;;;;;;;;;30.58;nan;100103.97;5015545;28;19940;-78
2021/07/16 09:28:22;;;;;;;;;;;;;;;29.93;nan;100109.63;5015473;28;19932;-78
2021/07/16 09:30:50;;;;;;;;;;;;;;;29.64;nan;100113.94;5015576;28;19940;-78
2021/07/16 09:33:17;;;;;;;;;;;;;;;29.65;nan;100121.28;5015284;28;19933;-78
2021/07/16 09:35:45;;;;;;;;;;;;;;;29.23;nan;100117.97;4997801;28;19925;-78
2021/07/16 09:38:13;;;;;;;;;;;;;;;29.73;nan;100121.53;5015193;28;19926;-78
2021/07/16 09:40:49;;;;;;;;;;;;;;;28.84;nan;100120.88;5015434;28;20280;-78
2021/07/16 09:43:18;;;;;;;;;;;;;;;28.95;nan;100123.75;4997426;28;20373;-82
2021/07/16 09:45:51;;;;;;;;;;;;;;;28.02;nan;100118.69;4997931;28;19926;-79
2021/07/16 09:48:19;;;;;;;;;;;;;;;27.17;nan;100120.06;5015583;28;20257;-80
2021/07/16 09:50:47;;;;;;;;;;;;;;;26.66;nan;100123.84;4997749;28;19956;-80
2021/07/16 09:53:22;;;;;;;;;;;;;;;25.74;nan;100131.72;4997493;28;20303;-79
2021/07/16 09:55:50;;;;;;;;;;;;;;;26.42;nan;100121.28;5015135;28;19936;-79
2021/07/16 09:58:24;;;;;;;;;;;;;;;26.84;nan;100114.88;4997229;28;19925;-79
2021/07/16 10:00:52;;;;;;;;;;;;;;;27.06;nan;100123.66;4997205;28;19929;-79
2021/07/16 10:03:20;;;;;;;;;;;;;;;27.16;nan;100133.63;4997309;28;20286;-79
2021/07/16 10:05:48;;;;;;;;;;;;;;;27.50;nan;100134.63;5014606;28;19926;-80
2021/07/16 10:08:16;;;;;;;;;;;;;;;27.94;nan;100131.97;5014959;28;19929;-80
2021/07/16 10:10:45;;;;;;;;;;;;;;;26.86;nan;100138.09;5013753;28;20312;-80
2021/07/16 10:13:12;;;;;;;;;;;;;;;26.80;nan;100137.28;4997284;28;20385;-79
2021/07/16 10:15:43;;;;;;;;;;;;;;;26.17;nan;100132.75;5014020;28;19926;-79
2021/07/16 10:18:11;;;;;;;;;;;;;;;26.04;nan;100147.44;5014734;28;19929;-79
2021/07/16 10:20:38;;;;;;;;;;;;;;;25.67;nan;100152.19;4997124;28;19926;-79
2021/07/16 10:23:07;;;;;;;;;;;;;;;25.72;nan;100140.00;5014459;28;19925;-79
2021/07/16 10:25:36;;;;;;;;;;;;;;;25.64;nan;100143.81;4997382;28;19940;-79
2021/07/16 10:28:04;;;;;;;;;;;;;;;25.85;nan;100151.91;5014279;28;19956;-80
2021/07/16 10:30:33;;;;;;;;;;;;;;;25.71;nan;100158.47;5014336;28;19939;-79
2021/07/16 10:33:00;;;;;;;;;;;;;;;25.55;nan;100150.44;5014252;28;19925;-79
2021/07/16 10:35:29;;;;;;;;;;;;;;;25.77;nan;100144.22;5014262;28;19955;-79
2021/07/16 10:37:58;;;;;;;;;;;;;;;25.45;nan;100154.75;5014318;28;19956;-79
2021/07/16 10:40:45;;;;;;;;;;;;;;;25.15;nan;100158.97;5014149;28;19932;-79
2021/07/16 10:43:22;;;;;;;;;;;;;;;25.04;nan;100161.63;4996855;28;19926;-79
2021/07/16 10:45:49;;;;;;;;;;;;;;;24.81;nan;100165.41;4996698;28;19934;-79
2021/07/16 10:48:17;;;;;;;;;;;;;;;24.91;nan;100158.31;5013977;28;19934;-79
2021/07/16 10:50:46;;;;;;;;;;;;;;;25.24;nan;100158.03;5014048;28;19999;-79
2021/07/16 10:53:33;;;;;;;;;;;;;;;25.60;nan;100151.81;5013704;28;19929;-80
2021/07/16 10:56:02;;;;;;;;;;;;;;;25.04;nan;100158.00;4979907;28;19925;-79
2021/07/16 10:58:36;;;;;;;;;;;;;;;24.55;nan;100176.63;5013658;28;19925;-79
2021/07/16 11:01:04;;;;;;;;;;;;;;;24.42;nan;100178.22;4996478;28;20292;-79
2021/07/16 11:03:49;;;;;;;;;;;;;;;24.02;nan;100178.75;4996365;28;19925;-79
2021/07/16 11:06:18;;;;;;;;;;;;;;;24.41;nan;100176.66;5001434;28;19925;-79
2021/07/16 11:08:45;;;;;;;;;;;;;;;24.90;nan;100173.13;4996258;28;20339;-79
2021/07/16 11:11:19;;;;;;;;;;;;;;;25.24;nan;100164.56;5013356;28;19926;-80
2021/07/16 11:13:51;;;;;;;;;;;;;;;25.22;nan;100167.13;4996087;28;19926;-79
2021/07/16 11:16:25;;;;;;;;;;;;;;;25.81;nan;100174.22;4995813;28;19925;-79
2021/07/16 11:18:55;;;;;;;;;;;;;;;25.88;nan;100155.81;5013838;28;19925;-80
2021/07/16 11:21:41;;;;;;;;;;;;;;;26.38;nan;100178.00;5013509;28;19926;-80
2021/07/16 11:26:55;;;;;;;;;;;;;;;26.75;nan;100165.91;5013326;28;19929;-80
2021/07/16 11:29:23;;;;;;;;;;;;;;;26.52;nan;100158.38;5012877;28;20292;-80
2021/07/16 11:32:03;;;;;;;;;;;;;;;26.59;nan;100158.69;5014321;28;19926;-79
2021/07/16 11:34:30;;;;;;;;;;;;;;;26.42;nan;100154.88;4996028;28;19975;-79
2021/07/16 11:36:59;;;;;;;;;;;;;;;26.38;nan;100154.31;4996077;28;19977;-80
2021/07/16 11:39:27;;;;;;;;;;;;;;;26.68;nan;100152.81;5013304;28;20385;-79
2021/07/16 11:41:55;;;;;;;;;;;;;;;26.31;nan;100149.03;4983266;28;19975;-79
2021/07/16 11:44:43;;;;;;;;;;;;;;;26.91;nan;100140.22;4996619;28;19926;-79
2021/07/16 11:47:14;;;;;;;;;;;;;;;26.81;nan;100152.41;4988750;28;19929;-78
2021/07/16 11:49:45;;;;;;;;;;;;;;;26.85;nan;100147.22;4996108;28;19979;-78
2021/07/16 11:52:20;;;;;;;;;;;;;;;27.13;nan;100159.66;5013790;28;21006;-78
2021/07/16 11:54:47;;;;;;;;;;;;;;;26.96;nan;100158.78;5013791;28;19930;-78
2021/07/16 11:57:15;;;;;;;;;;;;;;;26.60;nan;100148.03;5013613;28;19934;-78
2021/07/16 11:59:49;;;;;;;;;;;;;;;26.88;nan;100151.94;5013877;28;19926;-78
2021/07/16 12:02:18;;;;;;;;;;;;;;;26.65;nan;100161.63;5013859;28;19933;-78
2021/07/16 12:04:46;;;;;;;;;;;;;;;26.68;nan;100167.16;4996202;28;19929;-80
2021/07/16 12:07:14;;;;;;;;;;;;;;;26.92;nan;100170.47;5013503;28;20007;-80
2021/07/16 12:09:44;;;;;;;;;;;;;;;27.11;nan;100162.28;4996434;28;19996;-79
2021/07/16 12:12:17;;;;;;;;;;;;;;;27.30;nan;100166.34;5013659;28;19933;-79
2021/07/16 12:15:05;;;;;;;;;;;;;;;27.51;nan;100153.41;4996211;28;19926;-81
2021/07/16 12:17:50;;;;;;;;;;;;;;;27.69;nan;100159.53;5013684;28;19925;-80
2021/07/16 12:20:17;;;;;;;;;;;;;;;27.19;nan;100160.53;4995856;28;19979;-79
2021/07/16 12:23:10;;;;;;;;;;;;;;;26.72;nan;100158.31;4972088;28;19926;-79
2021/07/16 12:25:38;;;;;;;;;;;;;;;26.05;nan;100160.47;4990384;28;20288;-79
2021/07/16 12:28:10;;;;;;;;;;;;;;;26.26;nan;100147.69;5010718;28;19925;-82
2021/07/16 12:30:38;;;;;;;;;;;;;;;27.09;nan;100162.00;5006350;28;19925;-81
2021/07/16 12:33:07;;;;;;;;;;;;;;;26.80;nan;100139.34;5010669;28;20312;-81
2021/07/16 12:35:39;;;;;;;;;;;;;;;26.79;nan;100150.03;5013532;28;19929;-81
2021/07/16 12:38:08;;;;;;;;;;;;;;;26.12;nan;100160.03;5013533;28;20336;-81
2021/07/16 12:40:36;;;;;;;;;;;;;;;25.73;nan;100155.91;5015027;28;19925;-80
2021/07/16 12:43:14;;;;;;;;;;;;;;;26.06;nan;100164.13;5014978;28;20415;-81
2021/07/16 12:45:55;;;;;;;;;;;;;;;26.26;nan;100159.13;5014769;28;19929;-81
2021/07/16 12:48:26;;;;;;;;;;;;;;;26.12;nan;100160.03;5008259;28;19933;-81
2021/07/16 12:51:02;;;;;;;;;;;;;;;26.31;nan;100149.81;5013817;28;20001;-81
2021/07/16 12:53:31;;;;;;;;;;;;;;;26.25;nan;100148.19;5014594;28;20408;-80
2021/07/16 12:55:59;;;;;;;;;;;;;;;26.92;nan;100152.47;4961838;28;19983;-80
2021/07/16 12:58:34;;;;;;;;;;;;;;;26.88;nan;100140.47;5007074;28;19930;-81
2021/07/16 13:01:01;;;;;;;;;;;;;;;26.47;nan;100151.28;4980328;28;19932;-81
2021/07/16 13:03:36;;;;;;;;;;;;;;;26.01;nan;100159.91;4998550;28;19925;-81
2021/07/16 13:06:16;;;;;;;;;;;;;;;25.66;nan;100159.19;4999547;28;19932;-81
2021/07/16 13:09:03;;;;;;;;;;;;;;;25.72;nan;100162.13;5000086;28;19925;-81